TimeAKST,TemperatureF,Dew PointF,Humidity,Sea Level PressureIn,VisibilityMPH,Wind Direction,Wind SpeedMPH,Gust SpeedMPH,PrecipitationIn,Events,Conditions,WindDirDegrees,DateUTC
12:16 AM,21.2,17.6,86,30.15,10.0,Calm,Calm,-,N/A,,Overcast,0,2012-12-08 09:16:00
12:36 AM,21.2,17.6,86,30.15,10.0,Calm,Calm,-,N/A,,Overcast,0,2012-12-08 09:36:00
12:56 AM,21.2,17.6,86,30.16,10.0,Calm,Calm,-,N/A,,Overcast,0,2012-12-08 09:56:00
1:16 AM,21.2,17.6,86,30.16,10.0,Calm,Calm,-,N/A,,Overcast,0,2012-12-08 10:16:00
1:36 AM,21.2,17.6,86,30.17,10.0,WSW,3.5,-,N/A,,Overcast,240,2012-12-08 10:36:00
1:56 AM,19.4,17.6,93,30.17,10.0,Calm,Calm,-,N/A,,Overcast,0,2012-12-08 10:56:00
2:16 AM,19.4,17.6,93,30.18,10.0,Calm,Calm,-,N/A,,Overcast,0,2012-12-08 11:16:00
2:36 AM,21.2,17.6,86,30.18,10.0,Calm,Calm,-,N/A,,Overcast,0,2012-12-08 11:36:00
3:16 AM,21.2,19.4,93,30.18,10.0,Calm,Calm,-,N/A,,Mostly Cloudy,0,2012-12-08 12:16:00
3:36 AM,19.4,17.6,93,30.19,10.0,Calm,Calm,-,N/A,,Mostly Cloudy,0,2012-12-08 12:36:00
3:56 AM,19.4,15.8,86,30.19,10.0,Calm,Calm,-,N/A,,Overcast,0,2012-12-08 12:56:00
4:16 AM,19.4,17.6,93,30.19,10.0,Calm,Calm,-,N/A,,Mostly Cloudy,0,2012-12-08 13:16:00
4:36 AM,19.4,17.6,93,30.19,10.0,WSW,3.5,-,N/A,,Partly Cloudy,240,2012-12-08 13:36:00
4:56 AM,17.6,15.8,93,30.19,10.0,WSW,3.5,-,N/A,,Clear,240,2012-12-08 13:56:00
5:16 AM,19.4,17.6,93,30.19,10.0,Calm,Calm,-,N/A,,Partly Cloudy,0,2012-12-08 14:16:00
5:36 AM,17.6,14.0,86,30.19,10.0,Calm,Calm,-,N/A,,Scattered Clouds,0,2012-12-08 14:36:00
5:56 AM,19.4,15.8,86,30.19,10.0,Calm,Calm,-,N/A,,Mostly Cloudy,0,2012-12-08 14:56:00
6:16 AM,17.6,14.0,86,30.19,10.0,Calm,Calm,-,N/A,,Mostly Cloudy,0,2012-12-08 15:16:00
6:56 AM,19.4,15.8,86,30.19,10.0,Calm,Calm,-,N/A,,Scattered Clouds,0,2012-12-08 15:56:00
7:16 AM,19.4,15.8,86,30.19,10.0,SW,3.5,-,N/A,,Scattered Clouds,220,2012-12-08 16:16:00
7:36 AM,19.4,17.6,93,30.19,10.0,Calm,Calm,-,N/A,,Scattered Clouds,0,2012-12-08 16:36:00
7:56 AM,19.4,15.8,86,30.19,10.0,Calm,Calm,-,N/A,,Scattered Clouds,0,2012-12-08 16:56:00
8:16 AM,19.4,17.6,93,30.19,10.0,Calm,Calm,-,N/A,,Scattered Clouds,0,2012-12-08 17:16:00
8:36 AM,19.4,17.6,93,30.19,10.0,Calm,Calm,-,N/A,,Scattered Clouds,0,2012-12-08 17:36:00
8:56 AM,21.2,17.6,86,30.19,10.0,SSW,3.5,-,N/A,,Scattered Clouds,200,2012-12-08 17:56:00
9:16 AM,21.2,17.6,86,30.20,10.0,Calm,Calm,-,N/A,,Scattered Clouds,0,2012-12-08 18:16:00
9:36 AM,21.2,19.4,93,30.21,10.0,Calm,Calm,-,N/A,,Scattered Clouds,0,2012-12-08 18:36:00
9:56 AM,21.2,19.4,93,30.21,10.0,SW,3.5,-,N/A,,Mostly Cloudy,220,2012-12-08 18:56:00
10:16 AM,21.2,19.4,93,30.22,10.0,Calm,Calm,-,N/A,,Mostly Cloudy,0,2012-12-08 19:16:00
10:36 AM,21.2,17.6,86,30.22,10.0,WSW,3.5,-,N/A,,Mostly Cloudy,250,2012-12-08 19:36:00
10:56 AM,23.0,19.4,86,30.22,10.0,Calm,Calm,-,N/A,,Mostly Cloudy,0,2012-12-08 19:56:00
11:16 AM,21.2,19.4,93,30.21,10.0,Calm,Calm,-,N/A,,Mostly Cloudy,0,2012-12-08 20:16:00
11:36 AM,23.0,19.4,86,30.20,10.0,Calm,Calm,-,N/A,,Mostly Cloudy,0,2012-12-08 20:36:00
11:56 AM,23.0,19.4,86,30.20,10.0,WSW,3.5,-,N/A,,Mostly Cloudy,240,2012-12-08 20:56:00
12:16 PM,24.8,21.2,86,30.20,10.0,WSW,3.5,-,N/A,,Mostly Cloudy,240,2012-12-08 21:16:00
12:36 PM,24.8,19.4,80,30.19,10.0,WSW,4.6,-,N/A,,Mostly Cloudy,240,2012-12-08 21:36:00
12:56 PM,24.8,19.4,80,30.20,10.0,WSW,3.5,-,N/A,,Mostly Cloudy,240,2012-12-08 21:56:00
1:16 PM,24.8,21.2,86,30.20,10.0,Calm,Calm,-,N/A,,Mostly Cloudy,0,2012-12-08 22:16:00
1:36 PM,24.8,21.2,86,30.20,10.0,SW,3.5,-,N/A,,Mostly Cloudy,220,2012-12-08 22:36:00
1:56 PM,24.8,21.2,86,30.19,10.0,Calm,Calm,-,N/A,,Overcast,0,2012-12-08 22:56:00
2:16 PM,24.8,21.2,86,30.19,10.0,WSW,3.5,-,N/A,,Overcast,240,2012-12-08 23:16:00
2:36 PM,24.8,21.2,86,30.18,10.0,WSW,4.6,-,N/A,,Overcast,250,2012-12-08 23:36:00
2:56 PM,24.8,21.2,86,30.17,10.0,WSW,3.5,-,N/A,,Overcast,250,2012-12-08 23:56:00
3:16 PM,24.8,21.2,86,30.16,10.0,Calm,Calm,-,N/A,,Overcast,0,2012-12-09 00:16:00
3:56 PM,24.8,21.2,86,30.14,10.0,Calm,Calm,-,N/A,,Overcast,0,2012-12-09 00:56:00
4:16 PM,24.8,21.2,86,30.14,10.0,West,4.6,-,N/A,,Overcast,260,2012-12-09 01:16:00
4:56 PM,26.6,21.2,80,30.12,10.0,Calm,Calm,-,N/A,,Overcast,0,2012-12-09 01:56:00
5:16 PM,26.6,21.2,80,30.12,10.0,Calm,Calm,-,N/A,,Overcast,0,2012-12-09 02:16:00
5:36 PM,26.6,21.2,80,30.11,10.0,WSW,3.5,-,N/A,,Overcast,250,2012-12-09 02:36:00
5:56 PM,26.6,21.2,80,30.10,10.0,West,4.6,-,N/A,,Overcast,270,2012-12-09 02:56:00
6:16 PM,26.6,23.0,86,30.10,7.0,WSW,5.8,-,N/A,,Overcast,240,2012-12-09 03:16:00
6:36 PM,26.6,23.0,86,30.08,7.0,Calm,Calm,-,N/A,,Overcast,0,2012-12-09 03:36:00
6:56 PM,26.6,23.0,86,30.08,4.0,Calm,Calm,-,N/A,,Overcast,0,2012-12-09 03:56:00
7:16 PM,26.6,24.8,93,30.06,4.0,NE,5.8,-,N/A,,Overcast,50,2012-12-09 04:16:00
7:36 PM,28.4,24.8,86,30.03,4.0,ENE,10.4,-,N/A,,Overcast,60,2012-12-09 04:36:00
7:56 PM,30.2,24.8,80,30.02,4.0,East,8.1,-,N/A,,Overcast,80,2012-12-09 04:56:00
8:16 PM,30.2,26.6,86,30.01,4.0,East,4.6,-,N/A,,Overcast,80,2012-12-09 05:16:00
8:36 PM,30.2,26.6,86,29.99,4.0,ENE,3.5,-,N/A,,Overcast,70,2012-12-09 05:36:00
8:56 PM,30.2,26.6,86,29.97,1.5,East,5.8,-,N/A,,Overcast,100,2012-12-09 05:56:00
9:16 PM,30.2,26.6,86,29.97,1.5,Calm,Calm,-,N/A,,Overcast,0,2012-12-09 06:16:00
9:36 PM,30.2,26.6,86,29.95,1.5,Calm,Calm,-,N/A,,Overcast,0,2012-12-09 06:36:00
9:56 PM,30.2,26.6,86,29.95,1.2,North,3.5,-,N/A,,Overcast,10,2012-12-09 06:56:00
10:16 PM,30.2,26.6,86,29.95,1.2,North,6.9,-,N/A,,Overcast,10,2012-12-09 07:16:00
10:36 PM,30.2,28.4,93,29.94,1.2,NE,5.8,-,N/A,,Overcast,50,2012-12-09 07:36:00
10:56 PM,30.2,28.4,93,29.91,1.2,NNE,5.8,-,N/A,,Overcast,30,2012-12-09 07:56:00
11:16 PM,30.2,28.4,93,29.87,0.8,East,10.4,-,N/A,,Overcast,90,2012-12-09 08:16:00
11:36 PM,30.2,28.4,93,29.87,0.8,SSW,4.6,-,N/A,,Overcast,210,2012-12-09 08:36:00
11:56 PM,30.2,28.4,93,29.86,0.5,Calm,Calm,-,N/A,,Overcast,0,2012-12-09 08:56:00